createdAt,value
2018-08-10T00:01:37.016Z,99.90
2018-08-10T00:06:31.691Z,99.90
2018-08-10T00:11:26.165Z,99.90
2018-08-10T00:16:20.633Z,99.90
2018-08-10T00:21:15.255Z,99.90
2018-08-10T00:26:09.842Z,99.90
2018-08-10T00:31:04.479Z,99.90
2018-08-10T00:35:58.966Z,99.90
2018-08-10T00:40:53.451Z,99.90
2018-08-10T00:45:47.940Z,99.90
2018-08-10T00:50:42.559Z,99.90
2018-08-10T00:55:37.064Z,99.90
2018-08-10T01:00:31.502Z,99.90
2018-08-10T01:05:25.967Z,99.90
2018-08-10T01:10:21.223Z,99.90
2018-08-10T01:15:17.027Z,99.90
2018-08-10T01:20:21.936Z,99.90
2018-08-10T01:25:16.880Z,99.90
2018-08-10T01:30:11.336Z,99.90
2018-08-10T01:35:06.662Z,99.90
2018-08-10T01:40:01.126Z,99.90
2018-08-10T01:44:55.674Z,99.90
2018-08-10T01:49:50.141Z,99.90
2018-08-10T01:54:44.596Z,99.90
2018-08-10T01:59:39.049Z,99.90
2018-08-10T02:04:33.531Z,99.90
2018-08-10T02:09:27.986Z,99.90
2018-08-10T02:14:22.497Z,99.90
2018-08-10T02:19:16.970Z,99.90
2018-08-10T02:24:11.398Z,99.90
2018-08-10T02:29:05.868Z,99.90
2018-08-10T02:34:00.500Z,99.90
2018-08-10T02:38:54.946Z,99.90
2018-08-10T02:43:49.516Z,99.90
2018-08-10T02:48:44.013Z,99.90
2018-08-10T02:53:38.449Z,99.90
2018-08-10T02:58:33.370Z,99.90
2018-08-10T03:04:00.177Z,99.90
2018-08-10T03:08:54.833Z,99.90
2018-08-10T03:13:49.817Z,99.90
2018-08-10T03:18:44.284Z,99.90
2018-08-10T03:23:38.744Z,99.90
2018-08-10T03:28:33.233Z,99.90
2018-08-10T03:33:27.703Z,99.90
2018-08-10T03:38:25.250Z,99.90
2018-08-10T03:43:19.672Z,99.90
2018-08-10T03:48:14.287Z,99.90
2018-08-10T03:53:09.124Z,99.90
2018-08-10T03:58:03.736Z,99.90
2018-08-10T04:02:58.245Z,99.90
2018-08-10T04:07:52.751Z,99.90
2018-08-10T04:12:47.210Z,99.90
2018-08-10T04:17:41.773Z,99.90
2018-08-10T04:22:36.244Z,99.90
2018-08-10T04:27:30.744Z,99.90
2018-08-10T04:32:25.621Z,99.90
2018-08-10T04:37:20.296Z,99.90
2018-08-10T04:42:14.771Z,99.90
2018-08-10T04:47:09.239Z,99.90
2018-08-10T04:52:04.096Z,99.90
2018-08-10T04:56:58.616Z,99.90
2018-08-10T05:01:53.292Z,99.90
2018-08-10T05:06:47.923Z,99.90
2018-08-10T05:11:43.525Z,99.90
2018-08-10T05:16:37.994Z,99.90
2018-08-10T05:21:32.457Z,99.90
2018-08-10T05:26:26.957Z,99.90
2018-08-10T05:31:21.662Z,99.90
2018-08-10T05:36:16.595Z,99.90
2018-08-10T05:41:11.280Z,99.90
2018-08-10T05:46:06.147Z,99.90
2018-08-10T05:51:00.664Z,99.90
2018-08-10T05:55:55.252Z,99.90
2018-08-10T06:00:50.085Z,97.70
2018-08-10T06:05:44.732Z,90.70
2018-08-10T06:10:39.228Z,77.00
2018-08-10T06:15:34.267Z,59.60
2018-08-10T06:20:29.070Z,52.20
2018-08-10T06:25:23.893Z,48.50
2018-08-10T06:30:18.932Z,43.90
2018-08-10T06:35:13.676Z,39.90
2018-08-10T06:40:08.407Z,35.90
2018-08-10T06:45:03.598Z,33.70
2018-08-10T06:49:58.522Z,31.70
2018-08-10T06:54:53.348Z,29.70
2018-08-10T06:59:48.316Z,27.90
2018-08-10T07:04:43.686Z,25.70
2018-08-10T07:09:38.454Z,24.40
2018-08-10T07:14:33.270Z,23.40
2018-08-10T07:19:28.142Z,22.40
2018-08-10T07:24:22.898Z,21.60
2018-08-10T07:29:17.866Z,21.90
2018-08-10T07:34:12.610Z,21.20
2018-08-10T07:39:10.911Z,20.40
2018-08-10T07:44:05.896Z,19.90
2018-08-10T07:49:00.784Z,19.40
2018-08-10T07:53:55.710Z,18.90
2018-08-10T07:58:50.470Z,18.60
2018-08-10T08:03:45.187Z,17.80
2018-08-10T08:08:40.459Z,17.90
2018-08-10T08:13:35.448Z,16.90
2018-08-10T08:18:30.237Z,16.80
2018-08-10T08:23:25.150Z,17.70
2018-08-10T08:28:24.279Z,18.10
2018-08-10T08:33:19.902Z,17.50
2018-08-10T08:39:33.627Z,17.10
2018-08-10T08:45:44.094Z,16.70
2018-08-10T08:50:41.176Z,15.90
2018-08-10T08:55:40.227Z,15.60
2018-08-10T09:00:35.173Z,15.20
2018-08-10T09:05:30.470Z,14.30
2018-08-10T09:10:25.233Z,13.50
2018-08-10T09:15:21.326Z,13.40
2018-08-10T09:20:16.074Z,12.60
2018-08-10T09:25:15.160Z,12.30
2018-08-10T09:30:13.322Z,11.60
2018-08-10T09:35:09.869Z,11.20
2018-08-10T09:40:08.858Z,10.90
2018-08-10T09:45:03.779Z,11.50
2018-08-10T09:49:58.490Z,12.30
2018-08-10T09:55:32.090Z,12.30
2018-08-10T10:00:32.132Z,13.70
2018-08-10T10:05:27.196Z,16.70
2018-08-10T10:10:22.564Z,19.10
2018-08-10T10:15:17.747Z,21.80
2018-08-10T10:20:12.495Z,24.00
2018-08-10T10:25:07.263Z,26.30
2018-08-10T10:30:02.275Z,27.30
2018-08-10T10:34:57.000Z,27.60
2018-08-10T10:39:52.266Z,28.00
2018-08-10T10:44:47.018Z,27.90
2018-08-10T10:49:41.753Z,27.90
2018-08-10T10:54:37.178Z,28.80
2018-08-10T10:59:32.028Z,28.90
2018-08-10T11:04:26.671Z,29.10
2018-08-10T11:09:21.474Z,28.60
2018-08-10T11:14:16.326Z,27.90
2018-08-10T11:19:10.898Z,28.70
2018-08-10T11:24:05.549Z,28.80
2018-08-10T11:29:00.158Z,29.30
2018-08-10T11:33:54.732Z,28.90
2018-08-10T11:38:49.464Z,29.00
2018-08-10T11:43:43.932Z,28.60
2018-08-10T11:48:38.704Z,28.10
2018-08-10T11:53:33.513Z,28.20
2018-08-10T11:58:28.366Z,28.20
2018-08-10T12:03:23.270Z,27.40
2018-08-10T12:08:18.048Z,27.20
2018-08-10T12:13:12.788Z,27.10
2018-08-10T12:18:07.595Z,27.10
2018-08-10T12:23:02.329Z,27.60
2018-08-10T12:27:57.325Z,27.80
2018-08-10T12:32:52.135Z,27.70
2018-08-10T12:37:46.617Z,27.50
2018-08-10T12:42:41.518Z,27.40
2018-08-10T12:47:37.433Z,27.70
2018-08-10T12:52:32.459Z,27.70
2018-08-10T12:57:27.224Z,27.60
2018-08-10T13:02:21.957Z,26.20
2018-08-10T13:07:16.772Z,26.50
2018-08-10T13:12:11.368Z,27.10
2018-08-10T13:17:05.873Z,28.10
2018-08-10T13:22:00.391Z,27.60
2018-08-10T13:26:54.855Z,27.50
2018-08-10T13:31:50.024Z,27.60
2018-08-10T13:36:44.503Z,27.60
2018-08-10T13:41:39.754Z,27.80
2018-08-10T13:46:34.951Z,27.40
2018-08-10T13:51:30.036Z,27.60
2018-08-10T13:56:25.523Z,27.60
2018-08-10T14:01:20.278Z,27.60
2018-08-10T14:06:15.869Z,27.20
2018-08-10T14:11:10.726Z,27.20
2018-08-10T14:16:05.529Z,27.50
2018-08-10T14:21:00.045Z,27.30
2018-08-10T14:25:55.094Z,27.10
2018-08-10T14:30:49.538Z,27.40
2018-08-10T14:35:44.921Z,27.70
2018-08-10T14:40:39.684Z,27.70
2018-08-10T14:45:34.170Z,27.90
2018-08-10T14:50:28.692Z,26.60
2018-08-10T14:55:23.764Z,25.90
2018-08-10T15:00:20.590Z,26.20
2018-08-10T15:05:15.096Z,26.80
2018-08-10T15:10:12.420Z,27.40
2018-08-10T15:15:09.280Z,27.30
2018-08-10T15:20:04.090Z,26.90
2018-08-10T15:24:58.615Z,27.00
2018-08-10T15:29:53.548Z,26.70
2018-08-10T15:34:48.061Z,27.40
2018-08-10T15:39:42.718Z,27.60
2018-08-10T15:44:37.205Z,26.90
2018-08-10T15:49:31.668Z,26.60
2018-08-10T15:54:26.317Z,26.70
2018-08-10T15:59:20.745Z,27.50
2018-08-10T16:04:15.222Z,27.20
2018-08-10T16:09:12.072Z,27.10
2018-08-10T16:14:06.852Z,27.90
2018-08-10T16:19:01.532Z,28.10
2018-08-10T16:23:56.085Z,27.60
2018-08-10T16:28:50.784Z,28.00
2018-08-10T16:33:45.588Z,28.80
2018-08-10T16:38:40.553Z,29.10
2018-08-10T16:43:35.289Z,29.40
2018-08-10T16:48:29.917Z,29.60
2018-08-10T16:53:24.445Z,30.20
2018-08-10T16:58:19.134Z,30.50
2018-08-10T17:03:13.600Z,30.70
2018-08-10T17:08:08.113Z,30.70
2018-08-10T17:13:02.642Z,31.50
2018-08-10T17:17:57.386Z,31.90
2018-08-10T17:22:51.968Z,32.10
2018-08-10T17:27:46.548Z,32.60
2018-08-10T17:32:41.130Z,31.40
2018-08-10T17:37:35.687Z,32.00
2018-08-10T17:42:30.200Z,32.70
2018-08-10T17:47:24.955Z,33.20
2018-08-10T17:52:19.671Z,33.60
2018-08-10T17:57:14.234Z,34.00
2018-08-10T18:02:09.786Z,35.50
2018-08-10T18:07:04.355Z,35.10
2018-08-10T18:12:00.205Z,35.70
2018-08-10T18:16:54.714Z,36.20
2018-08-10T18:21:49.212Z,36.50
2018-08-10T18:26:43.694Z,36.90
2018-08-10T18:31:38.537Z,36.90
2018-08-10T18:36:33.304Z,37.30
2018-08-10T18:41:27.792Z,38.00
2018-08-10T18:46:22.352Z,38.10
2018-08-10T18:51:16.864Z,38.10
2018-08-10T18:56:11.550Z,38.50
2018-08-10T19:01:06.458Z,39.10
2018-08-10T19:06:01.216Z,39.40
2018-08-10T19:10:55.919Z,39.70
2018-08-10T19:15:50.497Z,40.10
2018-08-10T19:20:44.950Z,40.10
2018-08-10T19:25:39.432Z,40.80
2018-08-10T19:30:34.281Z,41.20
2018-08-10T19:35:29.136Z,41.50
2018-08-10T19:40:23.706Z,41.90
2018-08-10T19:45:18.514Z,41.80
2018-08-10T19:50:14.900Z,42.30
2018-08-10T19:55:12.196Z,43.00
2018-08-10T20:00:08.109Z,43.20
2018-08-10T20:05:02.882Z,43.60
2018-08-10T20:09:57.532Z,43.80
2018-08-10T20:14:52.244Z,44.20
2018-08-10T20:19:46.829Z,44.80
2018-08-10T20:24:41.377Z,45.40
2018-08-10T20:29:35.856Z,45.80
2018-08-10T20:34:30.366Z,46.30
2018-08-10T20:39:24.892Z,47.00
2018-08-10T20:44:19.630Z,47.60
2018-08-10T20:49:14.118Z,48.30
2018-08-10T20:54:08.594Z,48.30
2018-08-10T20:59:03.628Z,49.40
2018-08-10T21:03:58.164Z,49.60
2018-08-10T21:08:52.828Z,49.50
2018-08-10T21:13:47.451Z,50.00
2018-08-10T21:18:41.981Z,50.40
2018-08-10T21:23:36.455Z,51.20
2018-08-10T21:28:30.931Z,51.80
2018-08-10T21:33:25.602Z,52.60
2018-08-10T21:38:20.312Z,53.10
2018-08-10T21:43:14.816Z,54.10
2018-08-10T21:48:09.307Z,54.90
2018-08-10T21:53:03.852Z,55.60
2018-08-10T21:57:58.330Z,56.50
2018-08-10T22:02:52.862Z,57.20
2018-08-10T22:07:47.370Z,57.80
2018-08-10T22:12:47.944Z,58.40
2018-08-10T22:17:47.830Z,59.60
2018-08-10T22:22:42.337Z,60.50
2018-08-10T22:27:37.007Z,61.50
2018-08-10T22:32:31.465Z,62.60
2018-08-10T22:37:26.103Z,63.30
2018-08-10T22:42:21.140Z,64.10
2018-08-10T22:47:15.766Z,65.30
2018-08-10T22:52:10.254Z,65.20
2018-08-10T22:57:04.744Z,68.60
2018-08-10T23:01:59.266Z,67.00
2018-08-10T23:06:53.973Z,67.60
2018-08-10T23:11:48.562Z,68.30
2018-08-10T23:16:43.096Z,68.70
2018-08-10T23:21:37.575Z,69.10
2018-08-10T23:26:32.099Z,70.20
2018-08-10T23:31:26.588Z,70.50
2018-08-10T23:36:21.136Z,71.40
2018-08-10T23:41:15.707Z,71.70
2018-08-10T23:46:10.363Z,71.00
2018-08-10T23:51:05.071Z,71.00
2018-08-10T23:55:59.633Z,70.80
